createdAt,value
2022-12-24T00:00:13.426Z,0.00
2022-12-24T00:01:13.613Z,0.00
2022-12-24T00:02:13.912Z,0.00
2022-12-24T00:03:13.564Z,0.00
2022-12-24T00:04:14.079Z,0.00
2022-12-24T00:05:13.376Z,0.00
2022-12-24T00:06:13.393Z,0.00
2022-12-24T00:07:13.479Z,0.00
2022-12-24T00:08:13.438Z,0.00
2022-12-24T00:09:13.479Z,0.00
2022-12-24T00:10:13.518Z,0.00
2022-12-24T00:11:13.466Z,0.00
2022-12-24T00:12:13.628Z,0.00
2022-12-24T00:13:13.796Z,0.00
2022-12-24T00:14:13.871Z,0.00
2022-12-24T00:15:12.940Z,0.00
2022-12-24T00:16:13.032Z,0.00
2022-12-24T00:17:13.346Z,0.00
2022-12-24T00:18:13.312Z,0.00
2022-12-24T00:19:13.198Z,0.00
2022-12-24T00:20:13.233Z,0.00
2022-12-24T00:21:13.486Z,0.00
2022-12-24T00:22:13.657Z,0.00
2022-12-24T00:23:13.557Z,0.00
2022-12-24T00:24:13.496Z,0.00
2022-12-24T00:25:13.579Z,0.00
2022-12-24T00:26:13.461Z,0.00
2022-12-24T00:27:13.541Z,0.00
2022-12-24T00:28:13.473Z,0.00
2022-12-24T00:29:14.761Z,0.00
2022-12-24T00:30:13.680Z,0.00
2022-12-24T00:31:13.698Z,0.00
2022-12-24T00:32:13.704Z,0.00
2022-12-24T00:33:13.855Z,0.00
2022-12-24T00:34:13.327Z,0.00
2022-12-24T00:35:13.460Z,0.00
2022-12-24T00:36:13.481Z,0.00
2022-12-24T00:37:13.494Z,0.00
2022-12-24T00:38:13.548Z,0.00
2022-12-24T00:39:13.467Z,0.00
2022-12-24T00:40:13.539Z,0.00
2022-12-24T00:41:13.543Z,0.00
2022-12-24T00:42:13.814Z,0.00
2022-12-24T00:43:13.672Z,0.00
2022-12-24T00:44:13.559Z,0.00
2022-12-24T00:45:13.870Z,0.00
2022-12-24T00:46:14.165Z,0.00
2022-12-24T00:47:13.555Z,0.00
2022-12-24T00:48:13.421Z,0.00
2022-12-24T00:49:13.684Z,0.00
2022-12-24T00:50:13.666Z,0.00
2022-12-24T00:51:13.810Z,0.00
2022-12-24T00:52:13.908Z,0.00
2022-12-24T00:53:13.184Z,0.00
2022-12-24T00:54:13.424Z,0.00
2022-12-24T00:55:13.506Z,0.00
2022-12-24T00:56:13.538Z,0.00
2022-12-24T00:57:13.464Z,0.00
2022-12-24T00:58:13.322Z,0.00
2022-12-24T00:59:13.637Z,0.00
2022-12-24T01:00:13.504Z,0.00
2022-12-24T01:01:13.537Z,0.00
2022-12-24T01:02:13.773Z,0.00
2022-12-24T01:03:12.883Z,0.00
2022-12-24T01:04:13.192Z,0.00
2022-12-24T01:05:14.027Z,0.00
2022-12-24T01:06:13.026Z,0.00
2022-12-24T01:07:12.953Z,0.00
2022-12-24T01:08:12.868Z,0.00
2022-12-24T01:09:13.748Z,0.00
2022-12-24T01:10:13.781Z,0.00
2022-12-24T01:11:13.869Z,0.00
2022-12-24T01:12:13.820Z,0.00
2022-12-24T01:13:14.943Z,0.00
2022-12-24T01:14:13.206Z,0.00
2022-12-24T01:15:13.130Z,0.00
2022-12-24T01:16:13.193Z,0.00
2022-12-24T01:17:13.145Z,0.00
2022-12-24T01:18:13.010Z,0.00
2022-12-24T01:19:13.113Z,0.00
2022-12-24T01:20:13.359Z,0.00
2022-12-24T01:21:13.350Z,0.00
2022-12-24T01:22:13.290Z,0.00
2022-12-24T01:23:13.236Z,0.00
2022-12-24T01:24:13.152Z,0.00
2022-12-24T01:25:13.169Z,0.00
2022-12-24T01:26:13.123Z,0.00
2022-12-24T01:27:13.095Z,0.00
2022-12-24T01:28:18.057Z,0.00
2022-12-24T01:29:12.985Z,0.00
2022-12-24T01:30:12.915Z,0.00
2022-12-24T01:31:13.097Z,0.00
2022-12-24T01:32:13.142Z,0.00
2022-12-24T01:33:13.489Z,0.00
2022-12-24T01:34:13.436Z,0.00
2022-12-24T01:35:13.351Z,0.00
2022-12-24T01:36:13.494Z,0.00
2022-12-24T01:37:13.553Z,0.00
2022-12-24T01:38:13.473Z,0.00
2022-12-24T01:39:13.458Z,0.00
2022-12-24T01:40:13.639Z,0.00
2022-12-24T01:41:13.577Z,0.00
2022-12-24T01:42:13.726Z,0.00
2022-12-24T01:43:14.142Z,0.00
2022-12-24T01:44:13.301Z,0.00
2022-12-24T01:45:13.198Z,0.00
2022-12-24T01:46:13.324Z,0.00
2022-12-24T01:47:13.211Z,0.00
2022-12-24T01:48:13.475Z,0.00
2022-12-24T01:49:13.484Z,0.00
2022-12-24T01:50:13.473Z,0.00
2022-12-24T01:51:13.796Z,0.00
2022-12-24T01:52:13.760Z,0.00
2022-12-24T01:53:13.839Z,0.00
2022-12-24T01:54:13.780Z,0.00
2022-12-24T01:55:15.130Z,0.00
2022-12-24T01:56:13.059Z,0.00
2022-12-24T01:57:13.096Z,0.00
2022-12-24T01:58:13.251Z,0.00
2022-12-24T01:59:13.190Z,0.00
2022-12-24T02:00:13.207Z,0.00
2022-12-24T02:01:13.387Z,0.00
2022-12-24T02:02:13.972Z,0.00
2022-12-24T02:03:13.367Z,0.00
2022-12-24T02:04:13.370Z,0.00
2022-12-24T02:05:14.486Z,0.00
2022-12-24T02:06:13.537Z,0.00
2022-12-24T02:07:13.958Z,0.00
2022-12-24T02:08:12.895Z,0.00
2022-12-24T02:09:13.106Z,0.00
2022-12-24T02:10:13.237Z,0.00
2022-12-24T02:11:13.271Z,0.00
2022-12-24T02:12:13.099Z,0.00
2022-12-24T02:13:13.197Z,0.00
2022-12-24T02:14:13.067Z,0.00
2022-12-24T02:15:13.061Z,0.00
2022-12-24T02:16:13.193Z,0.00
2022-12-24T02:17:13.432Z,0.00
2022-12-24T02:18:13.350Z,0.00
2022-12-24T02:19:13.300Z,0.00
2022-12-24T02:20:13.686Z,0.00
2022-12-24T02:21:13.634Z,0.00
2022-12-24T02:22:13.661Z,0.00
2022-12-24T02:23:13.596Z,0.00
2022-12-24T02:24:13.413Z,0.00
2022-12-24T02:25:13.661Z,0.00
2022-12-24T02:26:13.920Z,0.00
2022-12-24T02:27:12.954Z,0.00
2022-12-24T02:28:12.892Z,0.00
2022-12-24T02:29:12.869Z,0.00
2022-12-24T02:30:13.793Z,0.00
2022-12-24T02:31:13.794Z,0.00
2022-12-24T02:32:13.827Z,0.00
2022-12-24T02:33:13.715Z,0.00
2022-12-24T02:34:13.829Z,0.00
2022-12-24T02:35:13.746Z,0.00
2022-12-24T02:36:13.641Z,0.00
2022-12-24T02:37:13.535Z,0.00
2022-12-24T02:38:13.717Z,0.00
2022-12-24T02:39:13.740Z,0.00
2022-12-24T02:40:16.607Z,0.00
2022-12-24T02:41:13.104Z,0.00
2022-12-24T02:42:13.048Z,0.00
2022-12-24T02:43:13.012Z,0.00
2022-12-24T02:44:13.185Z,0.00
2022-12-24T02:45:13.292Z,0.00
2022-12-24T02:46:13.499Z,0.00
2022-12-24T02:47:13.568Z,0.00
2022-12-24T02:48:13.634Z,0.00
2022-12-24T02:49:13.521Z,0.00
2022-12-24T02:50:13.649Z,0.00
2022-12-24T02:51:13.627Z,0.00
2022-12-24T02:52:13.832Z,0.00
2022-12-24T02:53:13.880Z,0.00
2022-12-24T02:54:13.933Z,0.00
2022-12-24T02:55:13.151Z,0.00
2022-12-24T02:56:13.414Z,0.00
2022-12-24T02:57:13.710Z,0.00
2022-12-24T02:58:13.757Z,0.00
2022-12-24T02:59:13.962Z,0.00
2022-12-24T03:00:12.972Z,0.00
2022-12-24T03:01:13.103Z,0.00
2022-12-24T03:02:13.403Z,0.00
2022-12-24T03:03:13.921Z,0.00
2022-12-24T03:04:13.331Z,0.00
2022-12-24T03:05:13.273Z,0.00
2022-12-24T03:06:13.207Z,0.00
2022-12-24T03:07:13.550Z,0.00
2022-12-24T03:08:13.915Z,0.00
2022-12-24T03:09:12.871Z,0.00
2022-12-24T03:10:14.107Z,0.00
2022-12-24T03:11:13.196Z,0.00
2022-12-24T03:12:13.436Z,0.00
2022-12-24T03:13:13.368Z,0.00
2022-12-24T03:14:13.318Z,0.00
2022-12-24T03:15:13.427Z,0.00
2022-12-24T03:16:13.838Z,0.00
2022-12-24T03:17:13.031Z,0.00
2022-12-24T03:18:12.889Z,0.00
2022-12-24T03:19:12.770Z,0.00
2022-12-24T03:20:13.731Z,0.00
2022-12-24T03:21:14.361Z,0.00
2022-12-24T03:22:13.288Z,0.00
2022-12-24T03:23:13.186Z,0.00
2022-12-24T03:24:13.208Z,0.00
2022-12-24T03:25:13.349Z,0.00
2022-12-24T03:26:13.520Z,0.00
2022-12-24T03:27:13.594Z,0.00
2022-12-24T03:28:13.815Z,0.00
2022-12-24T03:29:13.800Z,0.00
2022-12-24T03:30:13.852Z,0.00
2022-12-24T03:31:14.235Z,0.00
2022-12-24T03:32:13.236Z,0.00
2022-12-24T03:33:13.392Z,0.00
2022-12-24T03:34:13.350Z,0.00
2022-12-24T03:35:13.295Z,0.00
2022-12-24T03:36:13.256Z,0.00
2022-12-24T03:37:13.198Z,0.00
2022-12-24T03:38:13.195Z,0.00
2022-12-24T03:39:13.157Z,0.00
2022-12-24T03:40:13.454Z,0.00
2022-12-24T03:41:13.477Z,0.00
2022-12-24T03:42:13.688Z,0.00
2022-12-24T03:43:14.327Z,0.00
2022-12-24T03:44:13.594Z,0.00
2022-12-24T03:45:13.497Z,0.00
2022-12-24T03:46:13.536Z,0.00
2022-12-24T03:47:13.696Z,0.00
2022-12-24T03:48:13.607Z,0.00
2022-12-24T03:49:13.572Z,0.00
2022-12-24T03:50:13.583Z,0.00
2022-12-24T03:51:13.661Z,0.00
2022-12-24T03:52:13.912Z,0.00
2022-12-24T03:53:13.003Z,0.00
2022-12-24T03:54:12.947Z,0.00
2022-12-24T03:55:12.907Z,0.00
2022-12-24T03:56:13.150Z,0.00
2022-12-24T03:57:13.326Z,0.00
2022-12-24T03:58:13.645Z,0.00
2022-12-24T03:59:13.925Z,0.00
2022-12-24T04:00:12.950Z,0.00
2022-12-24T04:01:13.184Z,0.00
2022-12-24T04:02:13.311Z,0.00
2022-12-24T04:03:13.626Z,0.00
2022-12-24T04:04:13.864Z,0.00
2022-12-24T04:05:13.863Z,0.00
2022-12-24T04:06:14.163Z,0.00
2022-12-24T04:07:13.544Z,0.00
2022-12-24T04:08:13.911Z,0.00
2022-12-24T04:09:13.364Z,0.00
2022-12-24T04:10:13.390Z,0.00
2022-12-24T04:11:13.267Z,0.00
2022-12-24T04:12:13.384Z,0.00
2022-12-24T04:13:13.696Z,0.00
2022-12-24T04:14:14.786Z,0.00
2022-12-24T04:15:13.701Z,0.00
2022-12-24T04:16:13.723Z,0.00
2022-12-24T04:17:13.933Z,0.00
2022-12-24T04:18:12.974Z,0.00
2022-12-24T04:19:13.060Z,0.00
2022-12-24T04:20:12.979Z,0.00
2022-12-24T04:21:12.970Z,0.00
2022-12-24T04:22:13.308Z,0.00
2022-12-24T04:23:13.302Z,0.00
2022-12-24T04:24:13.499Z,0.00
2022-12-24T04:25:13.588Z,0.00
2022-12-24T04:26:13.547Z,0.00
2022-12-24T04:27:13.566Z,0.00
2022-12-24T04:28:13.840Z,0.00
2022-12-24T04:29:13.832Z,0.00
2022-12-24T04:30:13.093Z,0.00
2022-12-24T04:31:13.354Z,0.00
2022-12-24T04:32:13.378Z,0.00
2022-12-24T04:33:13.541Z,0.00
2022-12-24T04:34:13.640Z,0.00
2022-12-24T04:35:14.240Z,0.00
2022-12-24T04:36:13.312Z,0.00
2022-12-24T04:37:13.320Z,0.00
2022-12-24T04:38:13.298Z,0.00
2022-12-24T04:39:13.175Z,0.00
2022-12-24T04:40:13.242Z,0.00
2022-12-24T04:41:19.135Z,0.00
2022-12-24T04:42:13.775Z,0.00
2022-12-24T04:43:13.809Z,0.00
2022-12-24T04:44:13.754Z,0.00
2022-12-24T04:45:13.705Z,0.00
2022-12-24T04:46:13.825Z,0.00
2022-12-24T04:47:13.059Z,0.00
2022-12-24T04:48:13.039Z,0.00
2022-12-24T04:49:13.035Z,0.00
2022-12-24T04:50:13.344Z,0.00
2022-12-24T04:51:13.301Z,0.00
2022-12-24T04:52:13.424Z,0.00
2022-12-24T04:53:13.500Z,0.00
2022-12-24T04:54:13.904Z,0.00
2022-12-24T04:55:12.944Z,0.00
2022-12-24T04:56:13.251Z,0.00
2022-12-24T04:57:13.439Z,0.00
2022-12-24T04:58:13.454Z,0.00
2022-12-24T04:59:13.418Z,0.00
2022-12-24T05:00:13.299Z,0.00
2022-12-24T05:01:13.430Z,0.00
2022-12-24T05:02:13.625Z,0.00
2022-12-24T05:03:13.879Z,0.00
2022-12-24T05:04:12.928Z,0.00
2022-12-24T05:05:12.978Z,0.00
2022-12-24T05:06:13.479Z,0.00
2022-12-24T05:07:13.608Z,0.00
2022-12-24T05:08:13.580Z,0.00
2022-12-24T05:09:13.543Z,0.00
2022-12-24T05:10:13.484Z,0.00
2022-12-24T05:11:13.661Z,0.00
2022-12-24T05:12:13.640Z,0.00
2022-12-24T05:13:13.873Z,0.00
2022-12-24T05:14:13.189Z,0.00
2022-12-24T05:15:13.135Z,0.00
2022-12-24T05:16:13.256Z,0.00
2022-12-24T05:17:13.639Z,0.00
2022-12-24T05:18:14.112Z,0.00
2022-12-24T05:19:13.001Z,0.00
2022-12-24T05:20:12.908Z,0.00
2022-12-24T05:21:12.854Z,0.00
2022-12-24T05:22:13.195Z,0.00
2022-12-24T05:23:13.131Z,0.00
2022-12-24T05:24:13.178Z,0.00
2022-12-24T05:25:13.260Z,0.00
2022-12-24T05:26:13.321Z,0.00
2022-12-24T05:27:13.426Z,0.00
2022-12-24T05:28:13.609Z,0.00
2022-12-24T05:29:13.477Z,0.00
2022-12-24T05:30:13.630Z,0.00
2022-12-24T05:31:13.930Z,0.00
2022-12-24T05:32:12.805Z,0.00
2022-12-24T05:33:14.062Z,0.00
2022-12-24T05:34:13.153Z,0.00
2022-12-24T05:35:13.064Z,0.00
2022-12-24T05:36:13.240Z,0.00
2022-12-24T05:37:13.479Z,0.00
2022-12-24T05:38:13.626Z,0.00
2022-12-24T05:39:16.123Z,0.00
2022-12-24T05:40:13.399Z,0.00
2022-12-24T05:41:13.540Z,0.00
2022-12-24T05:42:13.506Z,0.00
2022-12-24T05:43:13.702Z,0.00
2022-12-24T05:44:13.888Z,0.00
2022-12-24T05:45:13.001Z,0.00
2022-12-24T05:46:12.908Z,0.00
2022-12-24T05:47:12.801Z,0.00
2022-12-24T05:48:13.702Z,0.00
2022-12-24T05:49:13.925Z,0.00
2022-12-24T05:50:12.925Z,0.00
2022-12-24T05:51:12.875Z,0.00
2022-12-24T05:52:14.038Z,0.00
2022-12-24T05:53:12.868Z,0.00
2022-12-24T05:54:13.902Z,0.00
2022-12-24T05:55:12.926Z,0.00
2022-12-24T05:56:12.970Z,0.00
2022-12-24T05:57:13.050Z,0.00
2022-12-24T05:58:12.955Z,0.00
2022-12-24T05:59:13.302Z,0.00
2022-12-24T06:00:13.368Z,0.00
2022-12-24T06:01:13.472Z,0.00
2022-12-24T06:02:13.771Z,0.00
2022-12-24T06:03:14.132Z,0.00
2022-12-24T06:04:13.124Z,0.00
2022-12-24T06:05:13.157Z,0.00
2022-12-24T06:06:13.121Z,0.00
2022-12-24T06:07:13.179Z,0.00
2022-12-24T06:08:13.169Z,0.00
2022-12-24T06:09:13.118Z,0.00
2022-12-24T06:10:13.124Z,0.00
2022-12-24T06:11:13.275Z,0.00
2022-12-24T06:12:13.284Z,0.00
2022-12-24T06:13:13.223Z,0.00
2022-12-24T06:14:13.350Z,0.00
2022-12-24T06:15:16.273Z,0.00
2022-12-24T06:16:13.558Z,0.00
2022-12-24T06:17:13.519Z,0.00
2022-12-24T06:18:13.696Z,0.00
2022-12-24T06:19:13.619Z,0.00
2022-12-24T06:20:13.852Z,0.00
2022-12-24T06:21:13.777Z,0.00
2022-12-24T06:22:13.769Z,0.00
2022-12-24T06:23:15.974Z,0.00
2022-12-24T06:24:13.052Z,0.00
2022-12-24T06:25:13.220Z,0.00
2022-12-24T06:26:13.506Z,0.00
2022-12-24T06:27:13.669Z,0.00
2022-12-24T06:28:13.882Z,0.00
2022-12-24T06:29:14.091Z,0.00
2022-12-24T06:30:13.070Z,0.00
2022-12-24T06:31:13.457Z,0.00
2022-12-24T06:32:13.874Z,0.00
2022-12-24T06:33:14.367Z,0.00
2022-12-24T06:34:13.719Z,0.00
2022-12-24T06:35:13.682Z,0.00
2022-12-24T06:36:17.454Z,0.00
2022-12-24T06:37:12.838Z,0.00
2022-12-24T06:38:14.043Z,0.00
2022-12-24T06:39:13.200Z,0.00
2022-12-24T06:40:13.159Z,0.00
2022-12-24T06:41:13.337Z,0.00
2022-12-24T06:42:13.671Z,0.00
2022-12-24T06:43:13.579Z,0.00
2022-12-24T06:44:13.483Z,0.00
2022-12-24T06:45:13.440Z,0.00
2022-12-24T06:46:13.439Z,0.00
2022-12-24T06:47:13.573Z,0.00
2022-12-24T06:48:13.519Z,0.00
2022-12-24T06:49:13.679Z,0.00
2022-12-24T06:50:13.735Z,0.00
2022-12-24T06:51:13.761Z,0.00
2022-12-24T06:52:14.016Z,0.00
2022-12-24T06:53:13.021Z,0.00
2022-12-24T06:54:13.410Z,0.00
2022-12-24T06:55:13.521Z,0.00
2022-12-24T06:56:13.905Z,0.77
2022-12-24T06:57:13.149Z,0.77
2022-12-24T06:58:13.376Z,0.77
2022-12-24T06:59:13.584Z,0.77
2022-12-24T07:00:13.508Z,0.77
2022-12-24T07:01:13.655Z,1.53
2022-12-24T07:02:14.075Z,2.29
2022-12-24T07:03:13.534Z,3.06
2022-12-24T07:04:19.815Z,3.82
2022-12-24T07:05:13.799Z,3.82
2022-12-24T07:06:13.901Z,6.12
2022-12-24T07:07:12.986Z,6.88
2022-12-24T07:08:12.864Z,7.65
2022-12-24T07:09:13.814Z,9.95
2022-12-24T07:10:13.929Z,11.47
2022-12-24T07:11:13.151Z,12.24
2022-12-24T07:12:13.131Z,12.24
2022-12-24T07:13:12.957Z,15.30
2022-12-24T07:14:13.407Z,21.42
2022-12-24T07:15:13.585Z,24.48
2022-12-24T07:16:13.737Z,30.60
2022-12-24T07:17:13.934Z,27.54
2022-12-24T07:18:13.269Z,24.48
2022-12-24T07:19:13.347Z,24.48
2022-12-24T07:20:13.378Z,30.60
2022-12-24T07:21:13.705Z,30.60
2022-12-24T07:22:15.910Z,39.78
2022-12-24T07:23:13.458Z,55.08
2022-12-24T07:24:13.706Z,73.44
2022-12-24T07:25:13.908Z,85.68
2022-12-24T07:26:12.945Z,91.80
2022-12-24T07:27:13.148Z,97.92
2022-12-24T07:28:13.251Z,110.16
2022-12-24T07:29:13.333Z,122.40
2022-12-24T07:30:13.388Z,110.16
2022-12-24T07:31:13.441Z,97.92
2022-12-24T07:32:13.449Z,110.16
2022-12-24T07:33:13.407Z,159.12
2022-12-24T07:34:13.312Z,183.60
2022-12-24T07:35:13.183Z,195.84
2022-12-24T07:36:13.231Z,195.84
2022-12-24T07:37:13.731Z,195.84
2022-12-24T07:38:14.071Z,171.36
2022-12-24T07:39:12.903Z,134.64
2022-12-24T07:40:12.991Z,134.64
2022-12-24T07:41:13.126Z,159.12
2022-12-24T07:42:13.002Z,171.36
2022-12-24T07:43:13.315Z,159.12
2022-12-24T07:44:13.231Z,159.12
2022-12-24T07:45:13.089Z,159.12
2022-12-24T07:46:13.144Z,146.88
2022-12-24T07:47:13.358Z,146.88
2022-12-24T07:48:13.298Z,146.88
2022-12-24T07:49:13.219Z,171.36
2022-12-24T07:50:13.291Z,195.84
2022-12-24T07:51:13.233Z,122.40
2022-12-24T07:52:13.453Z,122.40
2022-12-24T07:53:13.721Z,146.88
2022-12-24T07:54:13.635Z,183.60
2022-12-24T07:55:13.709Z,183.60
2022-12-24T07:56:13.778Z,220.32
2022-12-24T07:57:13.708Z,293.76
2022-12-24T07:58:14.147Z,489.60
2022-12-24T07:59:13.185Z,489.60
2022-12-24T08:00:13.025Z,538.56
2022-12-24T08:01:13.131Z,636.48
2022-12-24T08:02:18.149Z,636.48
2022-12-24T08:03:13.871Z,538.56
2022-12-24T08:04:13.337Z,538.56
2022-12-24T08:05:13.343Z,587.52
2022-12-24T08:06:13.320Z,636.48
2022-12-24T08:07:13.212Z,538.56
2022-12-24T08:08:13.093Z,636.48
2022-12-24T08:09:13.182Z,685.44
2022-12-24T08:10:13.125Z,783.36
2022-12-24T08:11:12.982Z,734.40
2022-12-24T08:12:13.171Z,783.36
2022-12-24T08:13:13.227Z,1175.04
2022-12-24T08:14:13.420Z,979.20
2022-12-24T08:15:13.299Z,1175.04
2022-12-24T08:16:13.277Z,1272.96
2022-12-24T08:17:13.550Z,1272.96
2022-12-24T08:18:13.568Z,1566.72
2022-12-24T08:19:13.488Z,1566.72
2022-12-24T08:20:13.480Z,1370.88
2022-12-24T08:21:13.622Z,1468.80
2022-12-24T08:22:13.487Z,1762.56
2022-12-24T08:23:13.526Z,2154.24
2022-12-24T08:24:13.419Z,2154.24
2022-12-24T08:25:13.334Z,1468.80
2022-12-24T08:26:13.428Z,1370.88
2022-12-24T08:27:13.611Z,1468.80
2022-12-24T08:28:13.845Z,1566.72
2022-12-24T08:29:14.126Z,1468.80
2022-12-24T08:30:18.995Z,1958.40
2022-12-24T08:31:13.287Z,1762.56
2022-12-24T08:32:18.380Z,1762.56
2022-12-24T08:33:13.551Z,1762.56
2022-12-24T08:34:13.436Z,1762.56
2022-12-24T08:35:13.280Z,1958.40
2022-12-24T08:36:13.554Z,1762.56
2022-12-24T08:37:13.606Z,1762.56
2022-12-24T08:38:13.785Z,1566.72
2022-12-24T08:39:13.988Z,1566.72
2022-12-24T08:40:12.908Z,1468.80
2022-12-24T08:41:12.959Z,1566.72
2022-12-24T08:42:13.239Z,1566.72
2022-12-24T08:43:13.258Z,1762.56
2022-12-24T08:44:13.154Z,1762.56
2022-12-24T08:45:13.424Z,1958.40
2022-12-24T08:46:13.495Z,1762.56
2022-12-24T08:47:13.507Z,1958.40
2022-12-24T08:48:13.513Z,1762.56
2022-12-24T08:49:13.445Z,1468.80
2022-12-24T08:50:13.568Z,1272.96
2022-12-24T08:51:13.635Z,1566.72
2022-12-24T08:52:13.474Z,1762.56
2022-12-24T08:53:13.640Z,1958.40
2022-12-24T08:54:13.596Z,1958.40
2022-12-24T08:55:13.509Z,1958.40
2022-12-24T08:56:13.487Z,2154.24
2022-12-24T08:57:13.914Z,2154.24
2022-12-24T08:58:12.994Z,1958.40
2022-12-24T08:59:12.909Z,1958.40
2022-12-24T09:00:13.024Z,1958.40
2022-12-24T09:01:13.410Z,2154.24
2022-12-24T09:02:13.811Z,1566.72
2022-12-24T09:03:14.399Z,1958.40
2022-12-24T09:04:13.753Z,1958.40
2022-12-24T09:05:14.026Z,1958.40
2022-12-24T09:06:13.031Z,2741.76
2022-12-24T09:07:13.293Z,2741.76
2022-12-24T09:08:13.232Z,2741.76
2022-12-24T09:09:13.514Z,2350.08
2022-12-24T09:10:13.398Z,2937.60
2022-12-24T09:11:13.410Z,3133.44
2022-12-24T09:12:13.641Z,2545.92
2022-12-24T09:13:13.655Z,2741.76
2022-12-24T09:14:13.625Z,3133.44
2022-12-24T09:15:13.596Z,3525.12
2022-12-24T09:16:13.609Z,3133.44
2022-12-24T09:17:13.602Z,3133.44
2022-12-24T09:18:13.540Z,3133.44
2022-12-24T09:19:13.461Z,2937.60
2022-12-24T09:20:13.491Z,2937.60
2022-12-24T09:21:13.424Z,3133.44
2022-12-24T09:22:13.299Z,3525.12
2022-12-24T09:23:13.443Z,3525.12
2022-12-24T09:24:13.415Z,3525.12
2022-12-24T09:25:13.314Z,3525.12
2022-12-24T09:26:13.524Z,3916.80
2022-12-24T09:27:13.913Z,5091.84
2022-12-24T09:28:12.860Z,4308.48
2022-12-24T09:29:14.146Z,4308.48
2022-12-24T09:30:13.273Z,5091.84
2022-12-24T09:31:13.615Z,5875.20
2022-12-24T09:32:13.906Z,6266.88
2022-12-24T09:33:13.372Z,5483.52
2022-12-24T09:34:13.530Z,6266.88
2022-12-24T09:35:13.533Z,6266.88
2022-12-24T09:36:13.454Z,5483.52
2022-12-24T09:37:13.385Z,4700.16
2022-12-24T09:38:16.069Z,4700.16
2022-12-24T09:39:13.204Z,3525.12
2022-12-24T09:40:13.251Z,3525.12
2022-12-24T09:41:13.425Z,3525.12
2022-12-24T09:42:13.807Z,2937.60
2022-12-24T09:43:13.698Z,3133.44
2022-12-24T09:44:13.693Z,3133.44
2022-12-24T09:45:13.635Z,3916.80
2022-12-24T09:46:13.732Z,4308.48
2022-12-24T09:47:13.868Z,4308.48
2022-12-24T09:48:13.892Z,4308.48
2022-12-24T09:49:12.861Z,4308.48
2022-12-24T09:50:13.739Z,4308.48
2022-12-24T09:51:13.945Z,5483.52
2022-12-24T09:52:13.041Z,5483.52
2022-12-24T09:53:12.965Z,4700.16
2022-12-24T09:54:12.980Z,5091.84
2022-12-24T09:55:13.206Z,4308.48
2022-12-24T09:56:13.553Z,3916.80
2022-12-24T09:57:13.481Z,3916.80
2022-12-24T09:58:14.266Z,4700.16
2022-12-24T09:59:13.592Z,5091.84
2022-12-24T10:00:13.776Z,3916.80
2022-12-24T10:01:14.150Z,3133.44
2022-12-24T10:02:13.398Z,3525.12
2022-12-24T10:03:13.482Z,3916.80
2022-12-24T10:04:13.652Z,4308.48
2022-12-24T10:05:13.552Z,3133.44
2022-12-24T10:06:13.621Z,1958.40
2022-12-24T10:07:13.540Z,2154.24
2022-12-24T10:08:13.599Z,2937.60
2022-12-24T10:09:13.992Z,3525.12
2022-12-24T10:10:12.880Z,3916.80
2022-12-24T10:11:13.517Z,3133.44
2022-12-24T10:12:13.820Z,3525.12
2022-12-24T10:13:13.986Z,3916.80
2022-12-24T10:14:13.038Z,3916.80
2022-12-24T10:15:13.130Z,5091.84
2022-12-24T10:16:13.077Z,5091.84
2022-12-24T10:17:13.339Z,3133.44
2022-12-24T10:18:13.731Z,3133.44
2022-12-24T10:19:13.969Z,4308.48
2022-12-24T10:20:13.083Z,5875.20
2022-12-24T10:21:13.129Z,7050.24
2022-12-24T10:22:13.273Z,7833.60
2022-12-24T10:23:13.704Z,7833.60
2022-12-24T10:24:13.800Z,7050.24
2022-12-24T10:25:13.913Z,7050.24
2022-12-24T10:26:12.869Z,7050.24
2022-12-24T10:27:13.753Z,7050.24
2022-12-24T10:28:13.796Z,6266.88
2022-12-24T10:29:14.029Z,6266.88
2022-12-24T10:30:16.842Z,7050.24
2022-12-24T10:31:13.606Z,6266.88
2022-12-24T10:32:13.776Z,6266.88
2022-12-24T10:33:13.708Z,6266.88
2022-12-24T10:34:13.634Z,5483.52
2022-12-24T10:35:14.284Z,6266.88
2022-12-24T10:36:13.334Z,7050.24
2022-12-24T10:37:13.410Z,7833.60
2022-12-24T10:38:13.270Z,7050.24
2022-12-24T10:39:13.228Z,7050.24
2022-12-24T10:40:13.298Z,9400.32
2022-12-24T10:41:13.389Z,10967.04
2022-12-24T10:42:13.275Z,12533.76
2022-12-24T10:43:13.243Z,9400.32
2022-12-24T10:44:13.104Z,10967.04
2022-12-24T10:45:12.972Z,12533.76
2022-12-24T10:46:13.088Z,12533.76
2022-12-24T10:47:13.400Z,10967.04
2022-12-24T10:48:13.508Z,7833.60
2022-12-24T10:49:13.516Z,7833.60
2022-12-24T10:50:13.459Z,8616.96
2022-12-24T10:51:13.430Z,7833.60
2022-12-24T10:52:13.390Z,7833.60
2022-12-24T10:53:13.593Z,7833.60
2022-12-24T10:54:13.599Z,11750.40
2022-12-24T10:55:13.824Z,12533.76
2022-12-24T10:56:14.185Z,10967.04
2022-12-24T10:57:13.513Z,9400.32
2022-12-24T10:58:13.388Z,5875.20
2022-12-24T10:59:13.499Z,5875.20
2022-12-24T11:00:13.708Z,7833.60
2022-12-24T11:01:13.702Z,10967.04
2022-12-24T11:02:13.996Z,10967.04
2022-12-24T11:03:13.705Z,6266.88
2022-12-24T11:04:13.914Z,8616.96
2022-12-24T11:05:13.105Z,8616.96
2022-12-24T11:06:13.075Z,5483.52
2022-12-24T11:07:13.293Z,4700.16
2022-12-24T11:08:13.290Z,4308.48
2022-12-24T11:09:13.571Z,4700.16
2022-12-24T11:10:13.496Z,5483.52
2022-12-24T11:11:13.713Z,4700.16
2022-12-24T11:12:14.220Z,4700.16
2022-12-24T11:13:36.996Z,5091.84
2022-12-24T11:14:13.212Z,3133.44
2022-12-24T11:15:13.359Z,3525.12
2022-12-24T11:16:13.463Z,2741.76
2022-12-24T11:17:13.351Z,2741.76
2022-12-24T11:18:13.375Z,2545.92
2022-12-24T11:19:13.628Z,2937.60
2022-12-24T11:20:13.472Z,3133.44
2022-12-24T11:21:13.378Z,2350.08
2022-12-24T11:22:13.557Z,2741.76
2022-12-24T11:23:13.516Z,3133.44
2022-12-24T11:24:13.430Z,1958.40
2022-12-24T11:25:13.576Z,1958.40
2022-12-24T11:26:13.793Z,3525.12
2022-12-24T11:27:14.028Z,3133.44
2022-12-24T11:28:12.900Z,6266.88
2022-12-24T11:29:13.001Z,8616.96
2022-12-24T11:30:13.331Z,7833.60
2022-12-24T11:31:13.415Z,7833.60
2022-12-24T11:32:13.467Z,8616.96
2022-12-24T11:33:13.521Z,8616.96
2022-12-24T11:34:13.773Z,7050.24
2022-12-24T11:35:13.700Z,6266.88
2022-12-24T11:36:13.787Z,6266.88
2022-12-24T11:37:15.228Z,7050.24
2022-12-24T11:38:13.529Z,7833.60
2022-12-24T11:39:13.476Z,7050.24
2022-12-24T11:40:13.451Z,6266.88
2022-12-24T11:41:13.419Z,7833.60
2022-12-24T11:42:13.560Z,7050.24
2022-12-24T11:43:15.028Z,4308.48
2022-12-24T11:44:13.336Z,3916.80
2022-12-24T11:45:13.409Z,5483.52
2022-12-24T11:46:13.563Z,4700.16
2022-12-24T11:47:13.614Z,3916.80
2022-12-24T11:48:13.571Z,3525.12
2022-12-24T11:49:13.526Z,5091.84
2022-12-24T11:50:18.546Z,6266.88
2022-12-24T11:51:13.281Z,7050.24
2022-12-24T11:52:13.234Z,7050.24
2022-12-24T11:53:13.257Z,5875.20
2022-12-24T11:54:13.386Z,5483.52
2022-12-24T11:55:16.286Z,5091.84
2022-12-24T11:56:13.830Z,4308.48
2022-12-24T11:57:14.155Z,3525.12
2022-12-24T11:58:13.087Z,4700.16
2022-12-24T11:59:13.075Z,5483.52
2022-12-24T12:00:13.193Z,3916.80
2022-12-24T12:01:15.865Z,2937.60
2022-12-24T12:02:13.307Z,2937.60
2022-12-24T12:03:13.404Z,3525.12
2022-12-24T12:04:13.308Z,4700.16
2022-12-24T12:05:13.598Z,5483.52
2022-12-24T12:06:13.808Z,4700.16
2022-12-24T12:07:15.227Z,5091.84
2022-12-24T12:08:13.591Z,4700.16
2022-12-24T12:09:13.594Z,4700.16
2022-12-24T12:10:13.844Z,4700.16
2022-12-24T12:11:14.135Z,5483.52
2022-12-24T12:12:13.068Z,5875.20
2022-12-24T12:13:15.952Z,5483.52
2022-12-24T12:14:13.416Z,5483.52
2022-12-24T12:15:13.383Z,5483.52
2022-12-24T12:16:13.400Z,4700.16
2022-12-24T12:17:13.598Z,4700.16
2022-12-24T12:18:13.558Z,4308.48
2022-12-24T12:19:15.407Z,3916.80
2022-12-24T12:20:13.816Z,3525.12
2022-12-24T12:21:13.942Z,3133.44
2022-12-24T12:22:13.150Z,3133.44
2022-12-24T12:23:13.183Z,2937.60
2022-12-24T12:24:13.475Z,2741.76
2022-12-24T12:25:13.459Z,2937.60
2022-12-24T12:26:13.356Z,3525.12
2022-12-24T12:27:13.650Z,4700.16
2022-12-24T12:28:13.774Z,5091.84
2022-12-24T12:29:13.888Z,5483.52
2022-12-24T12:30:14.058Z,5483.52
2022-12-24T12:31:16.304Z,5875.20
2022-12-24T12:32:13.863Z,5875.20
2022-12-24T12:33:13.222Z,5875.20
2022-12-24T12:34:13.253Z,5875.20
2022-12-24T12:35:13.480Z,5091.84
2022-12-24T12:36:13.867Z,4308.48
2022-12-24T12:37:15.118Z,3525.12
2022-12-24T12:38:13.750Z,2937.60
2022-12-24T12:39:13.668Z,2350.08
2022-12-24T12:40:13.786Z,2154.24
2022-12-24T12:41:13.816Z,2350.08
2022-12-24T12:42:13.853Z,2350.08
2022-12-24T12:43:14.567Z,2350.08
2022-12-24T12:44:13.914Z,2350.08
2022-12-24T12:45:13.276Z,2154.24
2022-12-24T12:46:13.569Z,2154.24
2022-12-24T12:47:13.717Z,2154.24